sensor_id;sensor_type;location;lat;lon;timestamp;temperature;humidity
19924;DHT22;10124;53.068;18.224;2022-12-07T00:01:35;2.60;1.00
19924;DHT22;10124;53.068;18.224;2022-12-07T00:06:40;2.60;1.00
19924;DHT22;10124;53.068;18.224;2022-12-07T00:09:14;2.80;1.00
19924;DHT22;10124;53.068;18.224;2022-12-07T00:14:14;2.60;1.00
19924;DHT22;10124;53.068;18.224;2022-12-07T00:16:43;2.60;98.90
19924;DHT22;10124;53.068;18.224;2022-12-07T00:19:12;2.60;99.90
19924;DHT22;10124;53.068;18.224;2022-12-07T00:24:10;2.50;99.90
19924;DHT22;10124;53.068;18.224;2022-12-07T00:26:40;2.50;99.90
19924;DHT22;10124;53.068;18.224;2022-12-07T00:29:16;2.50;1.00
19924;DHT22;10124;53.068;18.224;2022-12-07T00:34:16;2.60;1.00
19924;DHT22;10124;53.068;18.224;2022-12-07T00:44:08;2.30;1.00
19924;DHT22;10124;53.068;18.224;2022-12-07T00:56:28;2.60;1.00
19924;DHT22;10124;53.068;18.224;2022-12-07T00:58:59;2.60;1.00
19924;DHT22;10124;53.068;18.224;2022-12-07T01:01:29;2.60;1.00
19924;DHT22;10124;53.068;18.224;2022-12-07T01:11:24;2.40;1.00
19924;DHT22;10124;53.068;18.224;2022-12-07T01:13:53;2.70;1.00
19924;DHT22;10124;53.068;18.224;2022-12-07T01:16:23;2.70;1.00
19924;DHT22;10124;53.068;18.224;2022-12-07T01:18:53;2.70;1.00
19924;DHT22;10124;53.068;18.224;2022-12-07T01:21:23;2.70;1.00
19924;DHT22;10124;53.068;18.224;2022-12-07T01:23:51;2.70;1.00
19924;DHT22;10124;53.068;18.224;2022-12-07T01:26:21;3.80;1.00
19924;DHT22;10124;53.068;18.224;2022-12-07T01:31:19;2.70;1.00
19924;DHT22;10124;53.068;18.224;2022-12-07T01:33:51;2.20;1.00
19924;DHT22;10124;53.068;18.224;2022-12-07T01:38:49;2.60;1.00
19924;DHT22;10124;53.068;18.224;2022-12-07T01:41:20;2.70;1.00
19924;DHT22;10124;53.068;18.224;2022-12-07T01:46:54;2.60;1.00
19924;DHT22;10124;53.068;18.224;2022-12-07T01:49:38;3.10;1.00
19924;DHT22;10124;53.068;18.224;2022-12-07T01:55:13;2.60;74.80
19924;DHT22;10124;53.068;18.224;2022-12-07T01:57:46;3.00;99.90
19924;DHT22;10124;53.068;18.224;2022-12-07T02:00:16;2.90;99.90
19924;DHT22;10124;53.068;18.224;2022-12-07T02:02:53;2.60;99.90
19924;DHT22;10124;53.068;18.224;2022-12-07T02:05:23;2.70;99.90
19924;DHT22;10124;53.068;18.224;2022-12-07T02:07:54;2.70;99.90
19924;DHT22;10124;53.068;18.224;2022-12-07T02:10:25;5.00;99.90
19924;DHT22;10124;53.068;18.224;2022-12-07T02:13:05;2.60;1.00
19924;DHT22;10124;53.068;18.224;2022-12-07T02:18:50;2.60;1.00
19924;DHT22;10124;53.068;18.224;2022-12-07T02:21:25;2.70;1.00
19924;DHT22;10124;53.068;18.224;2022-12-07T02:24:12;3.80;1.00
19924;DHT22;10124;53.068;18.224;2022-12-07T02:29:24;2.60;27.30
19924;DHT22;10124;53.068;18.224;2022-12-07T02:32:16;2.80;1.00
19924;DHT22;10124;53.068;18.224;2022-12-07T02:35:01;2.60;99.90
19924;DHT22;10124;53.068;18.224;2022-12-07T02:37:51;2.50;99.90
19924;DHT22;10124;53.068;18.224;2022-12-07T02:40:29;2.70;99.90
19924;DHT22;10124;53.068;18.224;2022-12-07T02:43:04;2.70;73.00
19924;DHT22;10124;53.068;18.224;2022-12-07T02:45:36;2.70;99.90
19924;DHT22;10124;53.068;18.224;2022-12-07T02:48:06;2.70;99.90
19924;DHT22;10124;53.068;18.224;2022-12-07T02:53:02;2.80;99.90
19924;DHT22;10124;53.068;18.224;2022-12-07T02:55:35;2.70;99.90
19924;DHT22;10124;53.068;18.224;2022-12-07T02:58:23;2.80;99.90
19924;DHT22;10124;53.068;18.224;2022-12-07T03:01:04;2.80;99.90
19924;DHT22;10124;53.068;18.224;2022-12-07T03:03:37;3.00;1.00
19924;DHT22;10124;53.068;18.224;2022-12-07T03:06:22;2.90;1.00
19924;DHT22;10124;53.068;18.224;2022-12-07T03:09:18;2.90;1.00
19924;DHT22;10124;53.068;18.224;2022-12-07T03:11:52;2.90;1.00
19924;DHT22;10124;53.068;18.224;2022-12-07T03:14:31;2.70;99.90
19924;DHT22;10124;53.068;18.224;2022-12-07T03:17:11;3.60;1.00
19924;DHT22;10124;53.068;18.224;2022-12-07T03:19:41;3.10;1.00
19924;DHT22;10124;53.068;18.224;2022-12-07T03:22:12;3.90;1.00
19924;DHT22;10124;53.068;18.224;2022-12-07T03:24:52;2.90;1.00
19924;DHT22;10124;53.068;18.224;2022-12-07T03:30:00;4.00;1.00
19924;DHT22;10124;53.068;18.224;2022-12-07T03:32:36;2.90;1.00
19924;DHT22;10124;53.068;18.224;2022-12-07T03:37:53;3.00;1.00
19924;DHT22;10124;53.068;18.224;2022-12-07T03:40:30;3.00;1.00
19924;DHT22;10124;53.068;18.224;2022-12-07T03:43:01;3.00;1.00
19924;DHT22;10124;53.068;18.224;2022-12-07T03:45:38;3.00;1.00
19924;DHT22;10124;53.068;18.224;2022-12-07T03:48:32;3.20;1.00
19924;DHT22;10124;53.068;18.224;2022-12-07T03:56:52;3.00;99.90
19924;DHT22;10124;53.068;18.224;2022-12-07T03:59:20;2.90;92.70
19924;DHT22;10124;53.068;18.224;2022-12-07T04:01:54;2.90;1.00
19924;DHT22;10124;53.068;18.224;2022-12-07T04:04:25;3.00;1.00
19924;DHT22;10124;53.068;18.224;2022-12-07T04:06:53;3.00;1.00
19924;DHT22;10124;53.068;18.224;2022-12-07T04:09:21;3.00;1.00
19924;DHT22;10124;53.068;18.224;2022-12-07T04:11:49;2.90;99.90
19924;DHT22;10124;53.068;18.224;2022-12-07T04:16:55;3.00;1.00
19924;DHT22;10124;53.068;18.224;2022-12-07T04:19:28;2.90;1.00
19924;DHT22;10124;53.068;18.224;2022-12-07T04:21:58;2.90;1.00
19924;DHT22;10124;53.068;18.224;2022-12-07T04:24:26;3.30;1.00
19924;DHT22;10124;53.068;18.224;2022-12-07T04:29:21;3.10;1.00
19924;DHT22;10124;53.068;18.224;2022-12-07T04:31:49;2.90;1.00
19924;DHT22;10124;53.068;18.224;2022-12-07T04:34:18;3.00;99.90
19924;DHT22;10124;53.068;18.224;2022-12-07T04:36:47;3.20;99.90
19924;DHT22;10124;53.068;18.224;2022-12-07T04:39:22;3.30;39.10
19924;DHT22;10124;53.068;18.224;2022-12-07T04:41:50;3.80;84.50
19924;DHT22;10124;53.068;18.224;2022-12-07T04:44:19;3.00;99.90
19924;DHT22;10124;53.068;18.224;2022-12-07T04:46:46;2.80;1.00
19924;DHT22;10124;53.068;18.224;2022-12-07T04:49:15;2.80;69.00
19924;DHT22;10124;53.068;18.224;2022-12-07T04:51:43;2.80;47.50
19924;DHT22;10124;53.068;18.224;2022-12-07T04:54:13;5.00;1.00
19924;DHT22;10124;53.068;18.224;2022-12-07T04:56:40;2.80;1.00
19924;DHT22;10124;53.068;18.224;2022-12-07T04:59:09;2.80;1.00
19924;DHT22;10124;53.068;18.224;2022-12-07T05:01:37;2.80;1.00
19924;DHT22;10124;53.068;18.224;2022-12-07T05:04:06;2.60;1.00
19924;DHT22;10124;53.068;18.224;2022-12-07T05:06:34;2.70;1.00
19924;DHT22;10124;53.068;18.224;2022-12-07T05:09:02;2.70;99.90
19924;DHT22;10124;53.068;18.224;2022-12-07T05:11:30;2.70;99.90
19924;DHT22;10124;53.068;18.224;2022-12-07T05:14:14;4.40;99.90
19924;DHT22;10124;53.068;18.224;2022-12-07T05:16:43;2.50;99.90
19924;DHT22;10124;53.068;18.224;2022-12-07T05:19:11;2.50;99.90
19924;DHT22;10124;53.068;18.224;2022-12-07T05:21:40;2.50;99.90
19924;DHT22;10124;53.068;18.224;2022-12-07T05:24:10;2.50;99.90
19924;DHT22;10124;53.068;18.224;2022-12-07T05:26:38;2.40;99.90
19924;DHT22;10124;53.068;18.224;2022-12-07T05:29:06;2.30;99.90
19924;DHT22;10124;53.068;18.224;2022-12-07T05:31:33;2.30;99.90
19924;DHT22;10124;53.068;18.224;2022-12-07T05:34:01;2.30;99.90
19924;DHT22;10124;53.068;18.224;2022-12-07T05:36:29;2.20;16.80
19924;DHT22;10124;53.068;18.224;2022-12-07T05:38:59;2.20;1.00
19924;DHT22;10124;53.068;18.224;2022-12-07T05:41:27;2.80;1.00
19924;DHT22;10124;53.068;18.224;2022-12-07T05:44:13;2.30;1.00
19924;DHT22;10124;53.068;18.224;2022-12-07T05:46:40;2.10;1.00
19924;DHT22;10124;53.068;18.224;2022-12-07T05:49:08;2.10;1.00
19924;DHT22;10124;53.068;18.224;2022-12-07T05:51:35;4.10;1.00
19924;DHT22;10124;53.068;18.224;2022-12-07T05:54:03;2.10;1.00
19924;DHT22;10124;53.068;18.224;2022-12-07T05:56:31;2.10;1.00
19924;DHT22;10124;53.068;18.224;2022-12-07T05:58:58;3.60;1.00
19924;DHT22;10124;53.068;18.224;2022-12-07T06:01:44;2.00;1.00
19924;DHT22;10124;53.068;18.224;2022-12-07T06:04:12;2.00;1.00
19924;DHT22;10124;53.068;18.224;2022-12-07T06:06:39;4.40;1.00
19924;DHT22;10124;53.068;18.224;2022-12-07T06:09:07;1.90;1.00
19924;DHT22;10124;53.068;18.224;2022-12-07T06:11:34;2.00;1.00
19924;DHT22;10124;53.068;18.224;2022-12-07T06:14:20;3.80;1.00
19924;DHT22;10124;53.068;18.224;2022-12-07T06:16:48;2.00;1.00
19924;DHT22;10124;53.068;18.224;2022-12-07T06:19:16;2.70;1.00
19924;DHT22;10124;53.068;18.224;2022-12-07T06:21:43;2.80;1.00
19924;DHT22;10124;53.068;18.224;2022-12-07T06:24:15;1.90;1.00
19924;DHT22;10124;53.068;18.224;2022-12-07T06:26:43;1.90;1.00
19924;DHT22;10124;53.068;18.224;2022-12-07T06:29:11;2.50;1.00
19924;DHT22;10124;53.068;18.224;2022-12-07T06:31:39;3.00;1.00
19924;DHT22;10124;53.068;18.224;2022-12-07T06:34:11;3.80;1.00
19924;DHT22;10124;53.068;18.224;2022-12-07T06:36:38;1.80;1.00
19924;DHT22;10124;53.068;18.224;2022-12-07T06:39:06;1.80;1.00
19924;DHT22;10124;53.068;18.224;2022-12-07T06:41:37;1.80;1.00
19924;DHT22;10124;53.068;18.224;2022-12-07T06:44:05;1.70;1.00
19924;DHT22;10124;53.068;18.224;2022-12-07T06:46:33;1.70;1.00
19924;DHT22;10124;53.068;18.224;2022-12-07T06:49:03;1.70;1.00
19924;DHT22;10124;53.068;18.224;2022-12-07T06:51:32;1.70;1.00
19924;DHT22;10124;53.068;18.224;2022-12-07T06:53:59;1.70;1.00
19924;DHT22;10124;53.068;18.224;2022-12-07T06:56:27;1.70;1.00
19924;DHT22;10124;53.068;18.224;2022-12-07T06:58:56;1.70;1.00
19924;DHT22;10124;53.068;18.224;2022-12-07T07:01:23;1.50;1.00
19924;DHT22;10124;53.068;18.224;2022-12-07T07:03:51;1.40;1.00
19924;DHT22;10124;53.068;18.224;2022-12-07T07:06:19;1.30;1.00
19924;DHT22;10124;53.068;18.224;2022-12-07T07:08:46;1.30;7.40
19924;DHT22;10124;53.068;18.224;2022-12-07T07:11:14;1.20;99.90
19924;DHT22;10124;53.068;18.224;2022-12-07T07:13:41;1.30;1.00
19924;DHT22;10124;53.068;18.224;2022-12-07T07:16:09;1.70;1.00
19924;DHT22;10124;53.068;18.224;2022-12-07T07:23:33;1.30;99.90
19924;DHT22;10124;53.068;18.224;2022-12-07T07:28:28;1.20;99.90
19924;DHT22;10124;53.068;18.224;2022-12-07T07:30:56;1.30;99.90
19924;DHT22;10124;53.068;18.224;2022-12-07T07:35:51;3.40;99.90
19924;DHT22;10124;53.068;18.224;2022-12-07T07:38:18;1.60;99.90
19924;DHT22;10124;53.068;18.224;2022-12-07T07:40:46;1.40;99.90
19924;DHT22;10124;53.068;18.224;2022-12-07T07:50:37;1.70;99.90
19924;DHT22;10124;53.068;18.224;2022-12-07T08:00:29;1.60;1.00
19924;DHT22;10124;53.068;18.224;2022-12-07T08:12:48;1.80;99.90
19924;DHT22;10124;53.068;18.224;2022-12-07T08:15:37;1.70;99.90
19924;DHT22;10124;53.068;18.224;2022-12-07T08:18:05;1.70;99.90
19924;DHT22;10124;53.068;18.224;2022-12-07T08:20:34;1.70;1.00
19924;DHT22;10124;53.068;18.224;2022-12-07T08:25:31;1.90;1.00
19924;DHT22;10124;53.068;18.224;2022-12-07T08:27:59;1.90;1.00
19924;DHT22;10124;53.068;18.224;2022-12-07T08:30:28;4.20;1.00
19924;DHT22;10124;53.068;18.224;2022-12-07T08:32:56;2.00;1.00
19924;DHT22;10124;53.068;18.224;2022-12-07T08:40:20;2.10;1.00
19924;DHT22;10124;53.068;18.224;2022-12-07T08:42:49;2.10;99.90
19924;DHT22;10124;53.068;18.224;2022-12-07T08:45:17;4.00;99.90
19924;DHT22;10124;53.068;18.224;2022-12-07T08:48:03;2.30;99.90
19924;DHT22;10124;53.068;18.224;2022-12-07T08:50:34;2.20;99.90
19924;DHT22;10124;53.068;18.224;2022-12-07T08:53:04;2.20;99.90
19924;DHT22;10124;53.068;18.224;2022-12-07T08:55:33;1.80;99.90
19924;DHT22;10124;53.068;18.224;2022-12-07T08:58:02;2.20;99.90
19924;DHT22;10124;53.068;18.224;2022-12-07T09:07:58;2.10;99.90
19924;DHT22;10124;53.068;18.224;2022-12-07T09:10:28;2.20;1.00
19924;DHT22;10124;53.068;18.224;2022-12-07T09:15:29;2.20;1.00
19924;DHT22;10124;53.068;18.224;2022-12-07T09:17:56;2.20;1.00
19924;DHT22;10124;53.068;18.224;2022-12-07T09:20:24;2.30;1.00
19924;DHT22;10124;53.068;18.224;2022-12-07T09:22:54;2.40;1.00
19924;DHT22;10124;53.068;18.224;2022-12-07T09:25:22;4.80;1.00
19924;DHT22;10124;53.068;18.224;2022-12-07T09:27:55;2.50;99.90
19924;DHT22;10124;53.068;18.224;2022-12-07T09:30:25;2.50;99.90
19924;DHT22;10124;53.068;18.224;2022-12-07T09:32:54;2.60;99.90
19924;DHT22;10124;53.068;18.224;2022-12-07T09:35:24;3.60;99.90
19924;DHT22;10124;53.068;18.224;2022-12-07T09:37:51;2.60;99.90
19924;DHT22;10124;53.068;18.224;2022-12-07T09:40:21;2.80;99.90
19924;DHT22;10124;53.068;18.224;2022-12-07T09:42:52;2.80;99.90
19924;DHT22;10124;53.068;18.224;2022-12-07T09:45:28;4.60;99.90
19924;DHT22;10124;53.068;18.224;2022-12-07T09:47:58;2.90;99.90
19924;DHT22;10124;53.068;18.224;2022-12-07T09:50:28;3.50;99.90
19924;DHT22;10124;53.068;18.224;2022-12-07T09:53:09;3.70;40.30
19924;DHT22;10124;53.068;18.224;2022-12-07T09:55:41;3.00;1.00
19924;DHT22;10124;53.068;18.224;2022-12-07T09:58:22;3.10;32.30
19924;DHT22;10124;53.068;18.224;2022-12-07T10:01:22;3.10;12.60
19924;DHT22;10124;53.068;18.224;2022-12-07T10:03:51;4.60;23.70
19924;DHT22;10124;53.068;18.224;2022-12-07T10:06:19;3.20;1.00
19924;DHT22;10124;53.068;18.224;2022-12-07T10:08:47;3.20;1.00
19924;DHT22;10124;53.068;18.224;2022-12-07T10:11:15;3.10;1.00
19924;DHT22;10124;53.068;18.224;2022-12-07T10:13:45;3.30;99.30
19924;DHT22;10124;53.068;18.224;2022-12-07T10:18:53;3.00;90.90
19924;DHT22;10124;53.068;18.224;2022-12-07T10:21:26;3.80;7.60
19924;DHT22;10124;53.068;18.224;2022-12-07T10:26:33;4.00;7.90
19924;DHT22;10124;53.068;18.224;2022-12-07T10:29:30;3.10;12.70
19924;DHT22;10124;53.068;18.224;2022-12-07T10:34:41;2.90;44.30
19924;DHT22;10124;53.068;18.224;2022-12-07T10:37:18;4.20;72.20
19924;DHT22;10124;53.068;18.224;2022-12-07T10:42:23;5.00;14.70
19924;DHT22;10124;53.068;18.224;2022-12-07T10:45:12;2.90;47.40
19924;DHT22;10124;53.068;18.224;2022-12-07T10:53:36;3.40;99.90
19924;DHT22;10124;53.068;18.224;2022-12-07T10:56:44;3.00;99.90
19924;DHT22;10124;53.068;18.224;2022-12-07T10:59:44;2.90;99.90
19924;DHT22;10124;53.068;18.224;2022-12-07T11:02:30;2.90;99.90
19924;DHT22;10124;53.068;18.224;2022-12-07T11:07:38;3.00;58.60
19924;DHT22;10124;53.068;18.224;2022-12-07T11:10:22;3.00;59.10
19924;DHT22;10124;53.068;18.224;2022-12-07T11:13:09;3.10;99.90
19924;DHT22;10124;53.068;18.224;2022-12-07T11:16:11;3.00;99.90
19924;DHT22;10124;53.068;18.224;2022-12-07T11:30:00;2.80;99.90
19924;DHT22;10124;53.068;18.224;2022-12-07T11:35:11;2.90;99.90
19924;DHT22;10124;53.068;18.224;2022-12-07T11:37:42;2.90;99.90
19924;DHT22;10124;53.068;18.224;2022-12-07T11:40:31;2.80;99.90
19924;DHT22;10124;53.068;18.224;2022-12-07T11:45:51;2.80;99.90
19924;DHT22;10124;53.068;18.224;2022-12-07T11:48:35;2.50;99.90
19924;DHT22;10124;53.068;18.224;2022-12-07T11:51:07;2.70;99.90
19924;DHT22;10124;53.068;18.224;2022-12-07T11:53:41;3.00;1.00
19924;DHT22;10124;53.068;18.224;2022-12-07T11:56:15;2.60;1.00
19924;DHT22;10124;53.068;18.224;2022-12-07T12:09:21;2.70;99.90
19924;DHT22;10124;53.068;18.224;2022-12-07T12:15:34;2.70;99.90
19924;DHT22;10124;53.068;18.224;2022-12-07T12:21:09;2.60;99.90
19924;DHT22;10124;53.068;18.224;2022-12-07T12:23:40;2.30;99.90
19924;DHT22;10124;53.068;18.224;2022-12-07T12:26:17;2.80;99.90
19924;DHT22;10124;53.068;18.224;2022-12-07T12:29:19;4.60;99.90
19924;DHT22;10124;53.068;18.224;2022-12-07T12:32:04;2.70;99.90
19924;DHT22;10124;53.068;18.224;2022-12-07T12:42:55;2.60;99.90
19924;DHT22;10124;53.068;18.224;2022-12-07T12:50:42;2.50;99.90
19924;DHT22;10124;53.068;18.224;2022-12-07T12:53:16;2.60;1.00
19924;DHT22;10124;53.068;18.224;2022-12-07T12:56:07;2.60;1.00
19924;DHT22;10124;53.068;18.224;2022-12-07T12:58:40;2.50;1.00
19924;DHT22;10124;53.068;18.224;2022-12-07T13:03:56;3.40;1.00
19924;DHT22;10124;53.068;18.224;2022-12-07T13:08:56;2.60;1.00
19924;DHT22;10124;53.068;18.224;2022-12-07T13:17:01;2.60;1.00
19924;DHT22;10124;53.068;18.224;2022-12-07T13:27:58;2.40;1.00
19924;DHT22;10124;53.068;18.224;2022-12-07T13:30:29;2.40;1.00
19924;DHT22;10124;53.068;18.224;2022-12-07T13:32:58;3.60;99.40
19924;DHT22;10124;53.068;18.224;2022-12-07T13:35:35;2.30;99.90
19924;DHT22;10124;53.068;18.224;2022-12-07T13:38:14;2.30;85.80
19924;DHT22;10124;53.068;18.224;2022-12-07T13:41:11;2.90;99.90
19924;DHT22;10124;53.068;18.224;2022-12-07T13:43:50;2.30;99.90
19924;DHT22;10124;53.068;18.224;2022-12-07T13:46:24;2.30;99.90
19924;DHT22;10124;53.068;18.224;2022-12-07T13:51:27;2.10;99.90
19924;DHT22;10124;53.068;18.224;2022-12-07T13:54:00;2.20;99.90
19924;DHT22;10124;53.068;18.224;2022-12-07T13:56:32;2.20;99.90
19924;DHT22;10124;53.068;18.224;2022-12-07T13:59:01;2.20;99.90
19924;DHT22;10124;53.068;18.224;2022-12-07T14:01:33;2.20;1.00
19924;DHT22;10124;53.068;18.224;2022-12-07T14:04:18;2.20;1.00
19924;DHT22;10124;53.068;18.224;2022-12-07T14:06:50;2.10;1.00
19924;DHT22;10124;53.068;18.224;2022-12-07T14:09:23;2.60;1.00
19924;DHT22;10124;53.068;18.224;2022-12-07T14:11:53;3.00;99.90
19924;DHT22;10124;53.068;18.224;2022-12-07T14:14:27;2.00;99.90
19924;DHT22;10124;53.068;18.224;2022-12-07T14:17:14;2.00;99.90
19924;DHT22;10124;53.068;18.224;2022-12-07T14:19:55;2.00;1.00
19924;DHT22;10124;53.068;18.224;2022-12-07T14:22:30;1.90;1.00
19924;DHT22;10124;53.068;18.224;2022-12-07T14:25:20;1.90;1.00
19924;DHT22;10124;53.068;18.224;2022-12-07T14:27:56;1.90;1.00
19924;DHT22;10124;53.068;18.224;2022-12-07T14:30:29;3.60;1.00
19924;DHT22;10124;53.068;18.224;2022-12-07T14:33:04;2.00;1.00
19924;DHT22;10124;53.068;18.224;2022-12-07T14:35:32;1.90;1.00
19924;DHT22;10124;53.068;18.224;2022-12-07T14:38:00;3.40;1.00
19924;DHT22;10124;53.068;18.224;2022-12-07T14:40:28;1.90;10.50
19924;DHT22;10124;53.068;18.224;2022-12-07T14:43:16;2.00;99.90
19924;DHT22;10124;53.068;18.224;2022-12-07T14:48:15;1.90;73.30
19924;DHT22;10124;53.068;18.224;2022-12-07T14:51:03;4.00;85.90
19924;DHT22;10124;53.068;18.224;2022-12-07T14:53:53;1.90;99.90
19924;DHT22;10124;53.068;18.224;2022-12-07T14:56:26;1.90;99.90
19924;DHT22;10124;53.068;18.224;2022-12-07T14:58:55;1.90;99.90
19924;DHT22;10124;53.068;18.224;2022-12-07T15:01:22;2.10;99.90
19924;DHT22;10124;53.068;18.224;2022-12-07T15:06:18;1.80;99.90
19924;DHT22;10124;53.068;18.224;2022-12-07T15:08:46;2.20;99.90
19924;DHT22;10124;53.068;18.224;2022-12-07T15:11:15;1.80;99.90
19924;DHT22;10124;53.068;18.224;2022-12-07T15:13:43;4.20;99.90
19924;DHT22;10124;53.068;18.224;2022-12-07T15:16:29;1.80;1.00
19924;DHT22;10124;53.068;18.224;2022-12-07T15:19:19;1.90;1.00
19924;DHT22;10124;53.068;18.224;2022-12-07T15:21:57;3.40;1.00
19924;DHT22;10124;53.068;18.224;2022-12-07T15:24:26;1.80;99.90
19924;DHT22;10124;53.068;18.224;2022-12-07T15:26:53;1.80;99.90
19924;DHT22;10124;53.068;18.224;2022-12-07T15:29:22;1.80;99.90
19924;DHT22;10124;53.068;18.224;2022-12-07T15:31:53;1.80;99.90
19924;DHT22;10124;53.068;18.224;2022-12-07T15:34:26;1.80;99.90
19924;DHT22;10124;53.068;18.224;2022-12-07T15:37:02;1.80;99.90
19924;DHT22;10124;53.068;18.224;2022-12-07T15:39:29;2.10;99.90
19924;DHT22;10124;53.068;18.224;2022-12-07T15:41:57;2.10;1.00
19924;DHT22;10124;53.068;18.224;2022-12-07T15:44:26;2.00;1.00
19924;DHT22;10124;53.068;18.224;2022-12-07T15:47:14;1.70;99.90
19924;DHT22;10124;53.068;18.224;2022-12-07T15:49:42;1.80;1.00
19924;DHT22;10124;53.068;18.224;2022-12-07T15:52:10;1.70;99.90
19924;DHT22;10124;53.068;18.224;2022-12-07T15:54:38;2.60;99.90
19924;DHT22;10124;53.068;18.224;2022-12-07T15:57:05;2.50;99.90
19924;DHT22;10124;53.068;18.224;2022-12-07T15:59:33;1.70;99.90
19924;DHT22;10124;53.068;18.224;2022-12-07T16:02:00;1.70;99.90
19924;DHT22;10124;53.068;18.224;2022-12-07T16:04:28;3.90;99.90
19924;DHT22;10124;53.068;18.224;2022-12-07T16:06:59;1.70;1.00
19924;DHT22;10124;53.068;18.224;2022-12-07T16:09:26;1.70;1.00
19924;DHT22;10124;53.068;18.224;2022-12-07T16:11:54;1.60;1.00
19924;DHT22;10124;53.068;18.224;2022-12-07T16:16:50;1.60;1.00
19924;DHT22;10124;53.068;18.224;2022-12-07T16:19:17;1.50;1.00
19924;DHT22;10124;53.068;18.224;2022-12-07T16:21:45;1.50;1.00
19924;DHT22;10124;53.068;18.224;2022-12-07T16:24:12;1.60;1.00
19924;DHT22;10124;53.068;18.224;2022-12-07T16:26:43;1.70;1.00
19924;DHT22;10124;53.068;18.224;2022-12-07T16:29:18;1.60;1.00
19924;DHT22;10124;53.068;18.224;2022-12-07T16:31:47;1.70;99.90
19924;DHT22;10124;53.068;18.224;2022-12-07T16:34:16;3.40;1.00
19924;DHT22;10124;53.068;18.224;2022-12-07T16:36:43;1.70;1.00
19924;DHT22;10124;53.068;18.224;2022-12-07T16:39:32;1.70;1.00
19924;DHT22;10124;53.068;18.224;2022-12-07T16:42:00;1.80;99.90
19924;DHT22;10124;53.068;18.224;2022-12-07T16:54:41;1.70;1.00
19924;DHT22;10124;53.068;18.224;2022-12-07T16:57:08;3.70;1.00
19924;DHT22;10124;53.068;18.224;2022-12-07T16:59:36;2.00;1.00
19924;DHT22;10124;53.068;18.224;2022-12-07T17:02:03;3.30;1.00
19924;DHT22;10124;53.068;18.224;2022-12-07T17:04:32;1.30;1.00
19924;DHT22;10124;53.068;18.224;2022-12-07T17:07:00;1.20;1.00
19924;DHT22;10124;53.068;18.224;2022-12-07T17:09:28;1.20;1.00
19924;DHT22;10124;53.068;18.224;2022-12-07T17:11:55;1.20;1.00
19924;DHT22;10124;53.068;18.224;2022-12-07T17:14:23;1.20;1.00
19924;DHT22;10124;53.068;18.224;2022-12-07T17:17:09;1.70;22.60
19924;DHT22;10124;53.068;18.224;2022-12-07T17:19:37;1.50;99.90
19924;DHT22;10124;53.068;18.224;2022-12-07T17:22:04;1.20;99.90
19924;DHT22;10124;53.068;18.224;2022-12-07T17:24:32;1.40;99.90
19924;DHT22;10124;53.068;18.224;2022-12-07T17:26:59;1.40;99.90
19924;DHT22;10124;53.068;18.224;2022-12-07T17:29:27;1.40;99.90
19924;DHT22;10124;53.068;18.224;2022-12-07T17:31:54;1.40;99.90
19924;DHT22;10124;53.068;18.224;2022-12-07T17:34:22;1.50;99.90
19924;DHT22;10124;53.068;18.224;2022-12-07T17:36:49;1.50;99.90
19924;DHT22;10124;53.068;18.224;2022-12-07T17:39:18;1.60;7.40
19924;DHT22;10124;53.068;18.224;2022-12-07T17:41:45;1.50;1.00
19924;DHT22;10124;53.068;18.224;2022-12-07T17:44:32;1.50;1.00
19924;DHT22;10124;53.068;18.224;2022-12-07T17:46:59;1.50;1.00
19924;DHT22;10124;53.068;18.224;2022-12-07T17:49:29;1.50;1.00
19924;DHT22;10124;53.068;18.224;2022-12-07T17:51:57;1.50;36.00
19924;DHT22;10124;53.068;18.224;2022-12-07T17:54:43;1.40;99.90
19924;DHT22;10124;53.068;18.224;2022-12-07T17:57:10;1.30;99.90
19924;DHT22;10124;53.068;18.224;2022-12-07T17:59:38;1.30;99.90
19924;DHT22;10124;53.068;18.224;2022-12-07T18:12:01;1.20;99.90
19924;DHT22;10124;53.068;18.224;2022-12-07T18:14:29;1.20;1.00
19924;DHT22;10124;53.068;18.224;2022-12-07T18:16:57;1.20;99.90
19924;DHT22;10124;53.068;18.224;2022-12-07T18:19:25;1.30;99.90
19924;DHT22;10124;53.068;18.224;2022-12-07T18:21:52;2.60;99.90
19924;DHT22;10124;53.068;18.224;2022-12-07T18:24:20;1.80;1.00
19924;DHT22;10124;53.068;18.224;2022-12-07T18:26:47;1.60;1.00
19924;DHT22;10124;53.068;18.224;2022-12-07T18:29:16;1.20;1.00
19924;DHT22;10124;53.068;18.224;2022-12-07T18:31:45;1.20;1.00
19924;DHT22;10124;53.068;18.224;2022-12-07T18:34:16;1.20;1.00
19924;DHT22;10124;53.068;18.224;2022-12-07T18:36:47;2.60;1.00
19924;DHT22;10124;53.068;18.224;2022-12-07T18:39:17;3.60;1.00
19924;DHT22;10124;53.068;18.224;2022-12-07T18:41:45;1.50;1.00
19924;DHT22;10124;53.068;18.224;2022-12-07T18:44:14;1.30;1.00
19924;DHT22;10124;53.068;18.224;2022-12-07T18:46:42;1.10;1.00
19924;DHT22;10124;53.068;18.224;2022-12-07T18:49:13;1.30;1.00
19924;DHT22;10124;53.068;18.224;2022-12-07T18:51:41;2.70;1.00
19924;DHT22;10124;53.068;18.224;2022-12-07T18:54:09;1.10;1.00
19924;DHT22;10124;53.068;18.224;2022-12-07T18:56:37;0.90;99.90
19924;DHT22;10124;53.068;18.224;2022-12-07T19:01:53;0.70;99.90
19924;DHT22;10124;53.068;18.224;2022-12-07T19:09:18;0.80;1.00
19924;DHT22;10124;53.068;18.224;2022-12-07T19:11:46;0.60;1.00
19924;DHT22;10124;53.068;18.224;2022-12-07T19:14:23;0.60;1.00
19924;DHT22;10124;53.068;18.224;2022-12-07T19:16:55;0.60;1.00
19924;DHT22;10124;53.068;18.224;2022-12-07T19:19:35;0.70;1.00
19924;DHT22;10124;53.068;18.224;2022-12-07T19:22:04;0.90;1.00
19924;DHT22;10124;53.068;18.224;2022-12-07T19:24:33;0.70;1.00
19924;DHT22;10124;53.068;18.224;2022-12-07T19:27:03;0.60;99.90
19924;DHT22;10124;53.068;18.224;2022-12-07T19:32:00;0.50;99.90
19924;DHT22;10124;53.068;18.224;2022-12-07T19:34:29;1.90;99.90
19924;DHT22;10124;53.068;18.224;2022-12-07T19:36:56;0.90;99.90
19924;DHT22;10124;53.068;18.224;2022-12-07T19:41:53;0.70;99.90
19924;DHT22;10124;53.068;18.224;2022-12-07T19:44:24;0.70;99.90
19924;DHT22;10124;53.068;18.224;2022-12-07T19:46:54;0.40;99.90
19924;DHT22;10124;53.068;18.224;2022-12-07T19:49:32;0.40;99.90
19924;DHT22;10124;53.068;18.224;2022-12-07T19:52:02;0.40;99.90
19924;DHT22;10124;53.068;18.224;2022-12-07T19:54:31;0.40;99.90
19924;DHT22;10124;53.068;18.224;2022-12-07T19:56:59;0.40;99.90
19924;DHT22;10124;53.068;18.224;2022-12-07T19:59:28;0.50;1.00
19924;DHT22;10124;53.068;18.224;2022-12-07T20:01:56;0.20;1.00
19924;DHT22;10124;53.068;18.224;2022-12-07T20:04:27;0.40;1.00
19924;DHT22;10124;53.068;18.224;2022-12-07T20:06:59;0.40;1.00
19924;DHT22;10124;53.068;18.224;2022-12-07T20:09:27;0.40;1.00
19924;DHT22;10124;53.068;18.224;2022-12-07T20:11:55;0.30;99.90
19924;DHT22;10124;53.068;18.224;2022-12-07T20:14:42;0.30;1.00
19924;DHT22;10124;53.068;18.224;2022-12-07T20:17:10;0.40;99.90
19924;DHT22;10124;53.068;18.224;2022-12-07T20:19:39;0.40;1.00
19924;DHT22;10124;53.068;18.224;2022-12-07T20:22:06;0.50;1.00